createdAt,value
2022-12-25T00:01:49.525Z,101141.38
2022-12-25T00:04:17.336Z,101130.44
2022-12-25T00:06:45.355Z,101153.16
2022-12-25T00:09:14.611Z,101135.78
2022-12-25T00:11:42.483Z,101147.72
2022-12-25T00:14:10.256Z,101138.53
2022-12-25T00:16:38.286Z,101133.06
2022-12-25T00:19:06.170Z,101127.59
2022-12-25T00:21:34.196Z,101126.72
2022-12-25T00:24:03.505Z,101133.19
2022-12-25T00:26:32.749Z,101132.19
2022-12-25T00:29:00.974Z,101129.59
2022-12-25T00:31:28.999Z,101139.78
2022-12-25T00:33:56.996Z,101139.78
2022-12-25T00:36:24.915Z,101142.50
2022-12-25T00:38:52.675Z,101133.56
2022-12-25T00:41:43.159Z,101135.41
2022-12-25T00:44:14.010Z,101132.06
2022-12-25T00:46:42.642Z,101140.38
2022-12-25T00:49:11.260Z,101145.84
2022-12-25T00:51:39.144Z,101135.97
2022-12-25T00:54:06.965Z,101140.56
2022-12-25T00:56:35.132Z,101134.34
2022-12-25T00:59:02.990Z,101138.06
2022-12-25T01:01:32.581Z,101140.81
2022-12-25T01:04:01.013Z,101132.75
2022-12-25T01:06:29.196Z,101130.25
2022-12-25T01:09:14.746Z,101145.66
2022-12-25T01:11:42.645Z,101135.81
2022-12-25T01:14:11.166Z,101137.56
2022-12-25T01:16:41.094Z,101139.44
2022-12-25T01:19:09.471Z,101137.78
2022-12-25T01:21:37.343Z,101138.66
2022-12-25T01:24:05.422Z,101141.28
2022-12-25T01:26:33.323Z,101141.28
2022-12-25T01:29:02.447Z,101142.28
2022-12-25T01:31:30.317Z,101139.53
2022-12-25T01:33:59.525Z,101134.72
2022-12-25T01:36:28.002Z,101134.72
2022-12-25T01:38:55.921Z,101131.13
2022-12-25T01:41:26.272Z,101131.88
2022-12-25T01:44:05.317Z,101133.63
2022-12-25T01:46:34.200Z,101133.72
2022-12-25T01:49:08.925Z,101123.56
2022-12-25T01:51:41.082Z,101113.47
2022-12-25T01:54:13.123Z,101122.69
2022-12-25T01:56:43.424Z,101128.16
2022-12-25T01:59:13.659Z,101131.63
2022-12-25T02:01:41.719Z,101130.63
2022-12-25T02:04:22.403Z,101132.19
2022-12-25T02:06:52.732Z,101136.84
2022-12-25T02:09:20.662Z,101139.50
2022-12-25T02:11:57.649Z,101143.97
2022-12-25T02:14:26.210Z,101145.72
2022-12-25T02:17:08.336Z,101140.00
2022-12-25T02:19:58.881Z,101153.66
2022-12-25T02:22:38.676Z,101154.31
2022-12-25T02:25:22.916Z,101144.97
2022-12-25T02:28:15.063Z,101136.78
2022-12-25T02:30:47.302Z,101141.13
2022-12-25T02:33:45.942Z,101150.22
2022-12-25T02:36:21.981Z,101152.81
2022-12-25T02:39:12.495Z,101154.31
2022-12-25T02:41:44.635Z,101147.97
2022-12-25T02:44:37.794Z,101143.25
2022-12-25T02:47:24.928Z,101158.03
2022-12-25T02:50:11.975Z,101150.47
2022-12-25T02:52:59.779Z,101147.63
2022-12-25T02:55:51.312Z,101144.66
2022-12-25T02:58:41.032Z,101138.31
2022-12-25T03:01:33.568Z,101133.59
2022-12-25T03:04:23.614Z,101141.06
2022-12-25T03:07:10.245Z,101132.59
2022-12-25T03:09:59.481Z,101135.34
2022-12-25T03:12:43.572Z,101132.47
2022-12-25T03:15:31.195Z,101133.47
2022-12-25T03:18:04.152Z,101125.16
2022-12-25T03:20:49.987Z,101125.34
2022-12-25T03:23:41.330Z,101113.59
2022-12-25T03:26:27.414Z,101120.69
2022-12-25T03:28:55.469Z,101124.28
2022-12-25T03:31:39.926Z,101122.19
2022-12-25T03:34:48.222Z,101115.84
2022-12-25T03:37:50.402Z,101107.66
2022-12-25T03:40:45.207Z,101103.06
2022-12-25T03:43:40.365Z,101089.38
2022-12-25T03:46:32.583Z,101093.97
2022-12-25T03:49:25.749Z,101091.25
2022-12-25T03:52:16.142Z,101089.63
2022-12-25T03:55:04.340Z,101066.78
2022-12-25T03:57:52.720Z,101059.44
2022-12-25T04:00:38.498Z,101073.22
2022-12-25T04:03:23.853Z,101058.69
2022-12-25T04:06:09.276Z,101056.06
2022-12-25T04:08:55.918Z,101057.69
2022-12-25T04:11:41.271Z,101073.34
2022-12-25T04:14:26.614Z,101086.13
2022-12-25T04:17:11.808Z,101091.59
2022-12-25T04:19:56.895Z,101080.78
2022-12-25T04:22:42.052Z,101086.13
2022-12-25T04:25:29.269Z,101076.94
2022-12-25T04:28:19.600Z,101073.22
2022-12-25T04:31:05.397Z,101079.78
2022-12-25T04:33:50.509Z,101072.47
2022-12-25T04:36:18.477Z,101077.94
2022-12-25T04:38:46.298Z,101080.56
2022-12-25T04:41:15.581Z,101076.72
2022-12-25T04:43:43.532Z,101072.25
2022-12-25T04:46:11.393Z,101061.31
2022-12-25T04:48:39.438Z,101062.06
2022-12-25T04:51:12.322Z,101065.50
2022-12-25T04:53:40.028Z,101056.94
2022-12-25T04:56:07.999Z,101069.63
2022-12-25T04:58:37.335Z,101073.88
2022-12-25T05:01:06.138Z,101063.06
2022-12-25T05:03:34.623Z,101068.50
2022-12-25T05:06:03.171Z,101063.06
2022-12-25T05:08:32.161Z,101064.91
2022-12-25T05:11:00.110Z,101057.59
2022-12-25T05:13:27.966Z,101063.06
2022-12-25T05:15:57.234Z,101061.91
2022-12-25T05:18:25.764Z,101056.59
2022-12-25T05:20:54.280Z,101065.66
2022-12-25T05:23:22.898Z,101052.84
2022-12-25T05:25:50.763Z,101040.91
2022-12-25T05:28:19.217Z,101036.31
2022-12-25T05:30:46.921Z,101022.66
2022-12-25T05:33:16.096Z,101022.53
2022-12-25T05:35:43.931Z,101021.78
2022-12-25T05:38:11.762Z,101011.72
2022-12-25T05:40:41.805Z,101021.66
2022-12-25T05:43:10.097Z,101012.72
2022-12-25T05:45:37.864Z,101021.78
2022-12-25T05:48:05.914Z,101016.31
2022-12-25T05:50:37.781Z,101013.47
2022-12-25T05:53:08.316Z,101023.66
2022-12-25T05:55:37.158Z,101029.97
2022-12-25T05:58:05.340Z,101028.25
2022-12-25T06:00:33.818Z,101031.84
2022-12-25T06:03:02.143Z,101030.13
2022-12-25T06:05:31.102Z,101028.13
2022-12-25T06:08:00.202Z,101008.13
2022-12-25T06:10:28.087Z,100992.72
2022-12-25T06:12:55.881Z,100992.72
2022-12-25T06:15:23.766Z,101001.94
2022-12-25T06:17:51.543Z,101000.19
2022-12-25T06:20:19.555Z,101008.38
2022-12-25T06:22:47.436Z,101005.66
2022-12-25T06:25:16.857Z,100993.72
2022-12-25T06:27:44.705Z,100996.59
2022-12-25T06:30:12.968Z,100985.66
2022-12-25T06:32:40.945Z,100983.91
2022-12-25T06:35:09.276Z,100974.72
2022-12-25T06:37:36.977Z,100969.25
2022-12-25T06:40:05.674Z,100966.53
2022-12-25T06:42:34.779Z,100964.66
2022-12-25T06:45:02.743Z,100953.84
2022-12-25T06:47:30.581Z,100955.72
2022-12-25T06:49:58.334Z,100948.38
2022-12-25T06:52:26.344Z,100953.84
2022-12-25T06:54:54.138Z,100955.72
2022-12-25T06:57:21.875Z,100964.78
2022-12-25T06:59:55.183Z,100966.41
2022-12-25T07:02:25.396Z,100954.72
2022-12-25T07:04:54.060Z,100947.38
2022-12-25T07:07:23.654Z,100948.25
2022-12-25T07:09:51.570Z,100941.06
2022-12-25T07:12:21.110Z,100939.94
2022-12-25T07:14:50.317Z,100927.28
2022-12-25T07:17:21.131Z,100927.13
2022-12-25T07:19:49.193Z,100911.75
2022-12-25T07:22:17.770Z,100897.06
2022-12-25T07:24:45.669Z,100896.22
2022-12-25T07:27:13.495Z,100894.31
2022-12-25T07:29:41.434Z,100895.19
2022-12-25T07:32:10.031Z,100907.00
2022-12-25T07:34:39.220Z,100909.59
2022-12-25T07:37:06.977Z,100907.88
2022-12-25T07:39:35.580Z,100897.81
2022-12-25T07:42:03.394Z,100882.28
2022-12-25T07:44:40.671Z,100875.81
2022-12-25T07:47:08.500Z,100868.59
2022-12-25T07:49:39.589Z,100859.28
2022-12-25T07:52:08.704Z,100859.28
2022-12-25T07:54:36.525Z,100876.69
2022-12-25T07:57:04.452Z,100883.88
2022-12-25T07:59:32.385Z,100890.22
2022-12-25T08:02:00.495Z,100897.44
2022-12-25T08:04:28.571Z,100892.97
2022-12-25T08:06:56.785Z,100890.97
2022-12-25T08:09:26.128Z,100879.00
2022-12-25T08:11:54.058Z,100882.63
2022-12-25T08:14:21.895Z,100869.94
2022-12-25T08:16:52.699Z,100866.22
2022-12-25T08:19:20.692Z,100877.16
2022-12-25T08:21:48.483Z,100894.41
2022-12-25T08:24:16.845Z,100903.38
2022-12-25T08:26:45.959Z,100896.03
2022-12-25T08:29:13.754Z,100879.63
2022-12-25T08:31:46.333Z,100845.72
2022-12-25T08:34:15.056Z,100831.19
2022-12-25T08:36:42.903Z,100828.56
2022-12-25T08:39:10.997Z,100847.56
2022-12-25T08:41:39.103Z,100877.53
2022-12-25T08:44:08.721Z,100902.97
2022-12-25T08:46:36.792Z,100914.94
2022-12-25T08:49:04.712Z,100928.59
2022-12-25T08:51:32.564Z,100954.78
2022-12-25T08:54:01.563Z,100924.72
2022-12-25T08:56:29.593Z,100910.06
2022-12-25T08:58:57.597Z,100904.59
2022-12-25T09:01:26.877Z,100897.13
2022-12-25T09:03:54.888Z,100885.31
2022-12-25T09:06:22.807Z,100881.59
2022-12-25T09:08:51.308Z,100870.66
2022-12-25T09:11:20.620Z,100875.00
2022-12-25T09:13:48.480Z,100879.44
2022-12-25T09:16:19.065Z,100886.66
2022-12-25T09:18:48.440Z,100894.75
2022-12-25T09:21:17.655Z,100895.47
2022-12-25T09:23:46.131Z,100911.88
2022-12-25T09:26:15.890Z,100916.38
2022-12-25T09:28:50.627Z,100924.56
2022-12-25T09:31:22.466Z,100924.56
2022-12-25T09:33:52.251Z,100938.13
2022-12-25T09:36:23.195Z,100932.78
2022-12-25T09:38:51.072Z,100930.91
2022-12-25T09:41:24.031Z,100932.66
2022-12-25T09:43:56.339Z,100934.50
2022-12-25T09:46:34.844Z,100934.75
2022-12-25T09:49:14.047Z,100944.81
2022-12-25T09:51:45.206Z,100944.22
2022-12-25T09:54:20.721Z,100956.16
2022-12-25T09:56:48.731Z,100943.84
2022-12-25T09:59:27.182Z,100937.38
2022-12-25T10:02:05.741Z,100917.66
2022-12-25T10:04:52.139Z,100908.84
2022-12-25T10:07:30.493Z,100917.16
2022-12-25T10:10:13.429Z,100914.53
2022-12-25T10:12:50.352Z,100913.09
2022-12-25T10:15:31.545Z,100905.88
2022-12-25T10:18:18.298Z,100889.59
2022-12-25T10:20:53.134Z,100880.66
2022-12-25T10:23:27.401Z,100871.75
2022-12-25T10:25:55.615Z,100869.25
2022-12-25T10:28:31.021Z,100869.13
2022-12-25T10:31:03.190Z,100864.78
2022-12-25T10:33:31.952Z,100869.50
2022-12-25T10:36:01.261Z,100860.19
2022-12-25T10:38:29.145Z,100859.31
2022-12-25T10:41:09.896Z,100856.47
2022-12-25T10:43:42.564Z,100841.19
2022-12-25T10:46:12.769Z,100840.31
2022-12-25T10:48:44.612Z,100841.06
2022-12-25T10:51:14.182Z,100849.25
2022-12-25T10:53:44.347Z,100845.66
2022-12-25T10:56:17.764Z,100847.38
2022-12-25T10:58:45.721Z,100843.91
2022-12-25T11:01:16.352Z,100840.19
2022-12-25T11:03:48.392Z,100829.25
2022-12-25T11:06:26.445Z,100812.00
2022-12-25T11:08:58.543Z,100809.25
2022-12-25T11:11:28.000Z,100794.72
2022-12-25T11:13:59.366Z,100795.47
2022-12-25T11:16:30.280Z,100799.06
2022-12-25T11:18:59.905Z,100787.13
2022-12-25T11:21:33.936Z,100777.94
2022-12-25T11:24:03.513Z,100765.28
2022-12-25T11:26:36.532Z,100750.63
2022-12-25T11:29:09.219Z,100732.34
2022-12-25T11:31:40.597Z,100718.81
2022-12-25T11:34:16.417Z,100716.84
2022-12-25T11:36:48.404Z,100710.63
2022-12-25T11:39:28.891Z,100692.38
2022-12-25T11:42:03.585Z,100694.09
2022-12-25T11:44:40.287Z,100687.63
2022-12-25T11:47:14.685Z,100699.56
2022-12-25T11:49:50.389Z,100691.25
2022-12-25T11:52:23.159Z,100691.09
2022-12-25T11:54:59.258Z,100692.69
2022-12-25T11:57:30.275Z,100689.09
2022-12-25T12:00:04.256Z,100663.38
2022-12-25T12:02:37.901Z,100669.69
2022-12-25T12:05:14.792Z,100668.53
2022-12-25T12:07:56.545Z,100668.41
2022-12-25T12:10:33.376Z,100662.22
2022-12-25T12:13:19.123Z,100678.34
2022-12-25T12:15:48.573Z,100674.88
2022-12-25T12:18:22.603Z,100655.38
2022-12-25T12:21:11.001Z,100659.09
2022-12-25T12:23:51.007Z,100661.69
2022-12-25T12:26:21.280Z,100653.50
2022-12-25T12:28:50.465Z,100648.72
2022-12-25T12:31:18.460Z,100657.97
2022-12-25T12:33:53.482Z,100662.00
2022-12-25T12:36:34.558Z,100648.47
2022-12-25T12:39:06.210Z,100633.81
2022-12-25T12:41:46.573Z,100649.09
2022-12-25T12:44:17.588Z,100640.00
2022-12-25T12:46:53.952Z,100640.59
2022-12-25T12:49:24.107Z,100638.03
2022-12-25T12:52:03.449Z,100619.72
2022-12-25T12:54:32.786Z,100605.91
2022-12-25T12:57:02.620Z,100604.06
2022-12-25T12:59:39.051Z,100602.06
2022-12-25T13:02:28.009Z,100603.06
2022-12-25T13:05:03.670Z,100612.13
2022-12-25T13:07:44.974Z,100610.25
2022-12-25T13:10:26.496Z,100603.78
2022-12-25T13:12:56.115Z,100598.44
2022-12-25T13:15:27.374Z,100590.13
2022-12-25T13:17:57.853Z,100584.66
2022-12-25T13:20:35.583Z,100584.53
2022-12-25T13:23:14.831Z,100579.91
2022-12-25T13:25:44.030Z,100574.44
2022-12-25T13:28:15.381Z,100580.63
2022-12-25T13:30:43.643Z,100579.75
2022-12-25T13:33:19.531Z,100581.34
2022-12-25T13:35:48.337Z,100582.34
2022-12-25T13:38:18.153Z,100569.56
2022-12-25T13:41:07.623Z,100572.03
2022-12-25T13:43:35.612Z,100576.75
2022-12-25T13:46:03.409Z,100576.63
2022-12-25T13:48:31.473Z,100581.97
2022-12-25T13:51:00.939Z,100586.25
2022-12-25T13:53:29.015Z,100582.66
2022-12-25T13:56:00.272Z,100577.78
2022-12-25T13:58:31.556Z,100585.88
2022-12-25T14:01:01.797Z,100577.53
2022-12-25T14:03:36.250Z,100571.03
2022-12-25T14:06:06.454Z,100572.75
2022-12-25T14:08:36.488Z,100578.09
2022-12-25T14:11:07.788Z,100564.41
2022-12-25T14:13:38.892Z,100574.38
2022-12-25T14:16:08.391Z,100577.22
2022-12-25T14:18:36.756Z,100582.69
2022-12-25T14:21:07.990Z,100570.75
2022-12-25T14:23:42.779Z,100572.50
2022-12-25T14:26:22.726Z,100567.03
2022-12-25T14:29:18.113Z,100580.84
2022-12-25T14:31:49.471Z,100575.50
2022-12-25T14:34:21.894Z,100564.28
2022-12-25T14:36:51.832Z,100576.22
2022-12-25T14:39:34.817Z,100569.63
2022-12-25T14:42:14.638Z,100567.75
2022-12-25T14:44:42.871Z,100577.81
2022-12-25T14:47:18.100Z,100571.06
2022-12-25T14:49:47.242Z,100569.31
2022-12-25T14:52:20.169Z,100569.91
2022-12-25T14:54:50.874Z,100577.25
2022-12-25T14:57:26.010Z,100567.06
2022-12-25T15:00:05.301Z,100574.13
2022-12-25T15:02:41.679Z,100562.16
2022-12-25T15:05:32.678Z,100555.81
2022-12-25T15:08:21.373Z,100541.28
2022-12-25T15:11:00.437Z,100547.47
2022-12-25T15:13:31.796Z,100547.19
2022-12-25T15:16:04.665Z,100541.59
2022-12-25T15:18:35.382Z,100541.38
2022-12-25T15:21:04.145Z,100543.72
2022-12-25T15:23:31.992Z,100535.13
2022-12-25T15:25:59.809Z,100529.47
2022-12-25T15:28:27.653Z,100530.34
2022-12-25T15:30:57.200Z,100516.53
2022-12-25T15:33:28.784Z,100512.06
2022-12-25T15:35:58.502Z,100515.09
2022-12-25T15:38:27.277Z,100525.75
2022-12-25T15:40:55.761Z,100531.06
2022-12-25T15:43:40.284Z,100514.66
2022-12-25T15:46:11.054Z,100510.91
2022-12-25T15:48:39.035Z,100520.00
2022-12-25T15:51:06.935Z,100516.28
2022-12-25T15:53:34.847Z,100507.06
2022-12-25T15:56:02.740Z,100505.03
2022-12-25T15:58:30.521Z,100520.44
2022-12-25T16:00:58.313Z,100520.44
2022-12-25T16:03:27.763Z,100511.09
2022-12-25T16:05:55.786Z,100504.75
2022-12-25T16:08:24.063Z,100502.88
2022-12-25T16:10:53.012Z,100496.41
2022-12-25T16:13:20.828Z,100502.63
2022-12-25T16:15:48.654Z,100501.63
2022-12-25T16:18:16.553Z,100508.78
2022-12-25T16:20:45.789Z,100502.16
2022-12-25T16:23:13.688Z,100495.84
2022-12-25T16:25:41.464Z,100500.31
2022-12-25T16:28:10.318Z,100497.56
2022-12-25T16:30:46.389Z,100506.38
2022-12-25T16:33:15.418Z,100496.41
2022-12-25T16:35:45.303Z,100499.84
2022-12-25T16:38:13.316Z,100488.91
2022-12-25T16:40:41.384Z,100493.38
2022-12-25T16:43:09.298Z,100506.91
2022-12-25T16:45:39.489Z,100503.03
2022-12-25T16:48:08.773Z,100499.31
2022-12-25T16:50:39.228Z,100498.28
2022-12-25T16:53:08.719Z,100509.06
2022-12-25T16:55:38.776Z,100498.13
2022-12-25T16:58:07.813Z,100496.13
2022-12-25T17:00:35.879Z,100494.25
2022-12-25T17:03:03.953Z,100506.94
2022-12-25T17:05:34.565Z,100501.16
2022-12-25T17:08:02.519Z,100509.38
2022-12-25T17:10:32.452Z,100503.59
2022-12-25T17:13:00.598Z,100505.47
2022-12-25T17:15:29.081Z,100502.59
2022-12-25T17:17:57.027Z,100517.16
2022-12-25T17:20:25.095Z,100512.41
2022-12-25T17:22:53.050Z,100516.88
2022-12-25T17:25:21.020Z,100525.94
2022-12-25T17:27:51.136Z,100525.63
2022-12-25T17:30:19.055Z,100514.00
2022-12-25T17:32:47.185Z,100521.16
2022-12-25T17:35:15.293Z,100523.91
2022-12-25T17:37:45.467Z,100511.81
2022-12-25T17:40:14.229Z,100521.91
2022-12-25T17:42:42.288Z,100522.75
2022-12-25T17:45:16.519Z,100522.63
2022-12-25T17:47:47.346Z,100512.69
2022-12-25T17:50:25.514Z,100515.41
2022-12-25T17:52:53.857Z,100513.53
2022-12-25T17:55:21.767Z,100508.06
2022-12-25T17:57:49.889Z,100502.59
2022-12-25T18:00:20.325Z,100506.91
2022-12-25T18:02:48.454Z,100513.41
2022-12-25T18:05:16.698Z,100517.88
2022-12-25T18:07:44.910Z,100520.63
2022-12-25T18:10:14.850Z,100517.88
2022-12-25T18:12:44.496Z,100511.22
2022-12-25T18:15:13.235Z,100513.97
2022-12-25T18:17:42.426Z,100508.47
2022-12-25T18:20:12.924Z,100511.06
2022-12-25T18:22:40.727Z,100518.44
2022-12-25T18:25:09.409Z,100516.41
2022-12-25T18:27:37.443Z,100500.84
2022-12-25T18:30:06.205Z,100511.66
2022-12-25T18:32:34.380Z,100511.66
2022-12-25T18:35:04.418Z,100506.88
2022-12-25T18:37:39.419Z,100506.03
2022-12-25T18:40:10.325Z,100510.34
2022-12-25T18:42:41.024Z,100501.41
2022-12-25T18:45:11.650Z,100505.72
2022-12-25T18:47:39.852Z,100503.00
2022-12-25T18:50:10.765Z,100501.84
2022-12-25T18:52:50.901Z,100506.59
2022-12-25T18:55:21.113Z,100508.31
2022-12-25T18:57:49.515Z,100501.84
2022-12-25T19:00:18.204Z,100508.19
2022-12-25T19:02:46.140Z,100512.81
2022-12-25T19:05:15.701Z,100515.41
2022-12-25T19:07:43.924Z,100516.25
2022-12-25T19:10:11.786Z,100515.41
2022-12-25T19:12:39.647Z,100511.66
2022-12-25T19:15:08.511Z,100512.53
2022-12-25T19:17:36.272Z,100518.84
2022-12-25T19:20:05.937Z,100518.00
2022-12-25T19:22:35.096Z,100519.69
2022-12-25T19:25:03.128Z,100516.97
2022-12-25T19:27:31.044Z,100526.91
2022-12-25T19:29:58.820Z,100527.06
2022-12-25T19:32:26.821Z,100527.78
2022-12-25T19:34:54.647Z,100536.84
2022-12-25T19:37:24.408Z,100540.47
2022-12-25T19:39:54.047Z,100547.53
2022-12-25T19:42:22.867Z,100545.81
2022-12-25T19:44:51.203Z,100545.66
2022-12-25T19:47:19.089Z,100551.28
2022-12-25T19:49:52.535Z,100552.00
2022-12-25T19:52:21.117Z,100541.06
2022-12-25T19:54:53.048Z,100540.72
2022-12-25T19:57:20.913Z,100552.88
2022-12-25T19:59:50.147Z,100537.84
2022-12-25T20:02:18.144Z,100536.13
2022-12-25T20:04:46.008Z,100535.97
2022-12-25T20:07:13.908Z,100534.97
2022-12-25T20:09:41.697Z,100537.72
2022-12-25T20:12:11.259Z,100542.03
2022-12-25T20:14:39.123Z,100523.88
2022-12-25T20:17:12.147Z,100542.91
2022-12-25T20:19:43.372Z,100534.69
2022-12-25T20:22:11.164Z,100524.56
2022-12-25T20:24:39.004Z,100529.03
2022-12-25T20:27:06.838Z,100537.97
2022-12-25T20:29:37.413Z,100536.09
2022-12-25T20:32:05.867Z,100526.00
2022-12-25T20:34:33.678Z,100528.75
2022-12-25T20:37:01.554Z,100529.63
2022-12-25T20:39:29.399Z,100527.75
2022-12-25T20:41:57.353Z,100545.06
2022-12-25T20:44:25.235Z,100556.88
2022-12-25T20:46:54.915Z,100544.91
2022-12-25T20:49:22.765Z,100543.19
2022-12-25T20:51:50.678Z,100534.97
2022-12-25T20:54:18.508Z,100533.09
2022-12-25T20:56:46.439Z,100538.56
2022-12-25T20:59:14.554Z,100533.94
2022-12-25T21:01:42.591Z,100523.00
2022-12-25T21:04:16.168Z,100522.81
2022-12-25T21:06:44.588Z,100539.25
2022-12-25T21:09:12.396Z,100535.66
2022-12-25T21:11:40.710Z,100542.00
2022-12-25T21:14:08.766Z,100537.38
2022-12-25T21:16:36.822Z,100537.38
2022-12-25T21:19:04.753Z,100538.25
2022-12-25T21:21:35.934Z,100533.50
2022-12-25T21:24:03.922Z,100527.28
2022-12-25T21:26:32.343Z,100535.50
2022-12-25T21:29:02.184Z,100526.28
2022-12-25T21:31:30.941Z,100544.59
2022-12-25T21:33:57.977Z,100531.75
2022-12-25T21:36:28.750Z,100539.84
2022-12-25T21:38:59.870Z,100541.72
2022-12-25T21:41:29.029Z,100545.47
2022-12-25T21:43:57.399Z,100549.94
2022-12-25T21:46:26.746Z,100555.41
2022-12-25T21:48:55.454Z,100560.03
2022-12-25T21:51:42.536Z,100571.84
2022-12-25T21:54:13.783Z,100583.81
2022-12-25T21:56:45.433Z,100593.06
2022-12-25T21:59:16.318Z,100594.38
2022-12-25T22:01:45.301Z,100599.13
2022-12-25T22:04:15.310Z,100596.84
2022-12-25T22:07:00.809Z,100601.88
2022-12-25T22:09:30.644Z,100587.75
2022-12-25T22:12:16.544Z,100600.19
2022-12-25T22:14:56.641Z,100604.19
2022-12-25T22:17:44.100Z,100606.53
2022-12-25T22:20:15.012Z,100622.22
2022-12-25T22:22:43.044Z,100607.06
2022-12-25T22:25:12.700Z,100618.03
2022-12-25T22:27:41.563Z,100616.59
2022-12-25T22:30:11.899Z,100623.94
2022-12-25T22:32:40.096Z,100607.78
2022-12-25T22:35:08.678Z,100619.75
2022-12-25T22:37:36.956Z,100622.47
2022-12-25T22:40:06.172Z,100625.41
2022-12-25T22:42:35.655Z,100626.09
2022-12-25T22:45:04.648Z,100632.75
2022-12-25T22:47:32.677Z,100627.25
2022-12-25T22:50:00.564Z,100640.97
2022-12-25T22:52:28.415Z,100641.97
2022-12-25T22:54:56.298Z,100644.69
2022-12-25T22:57:24.291Z,100639.34
2022-12-25T22:59:54.096Z,100635.75
2022-12-25T23:02:22.332Z,100641.50
2022-12-25T23:04:50.253Z,100641.66
2022-12-25T23:07:18.440Z,100634.31
2022-12-25T23:09:46.473Z,100633.59
2022-12-25T23:12:28.328Z,100638.06
2022-12-25T23:14:58.045Z,100646.28
2022-12-25T23:17:43.209Z,100645.28
2022-12-25T23:20:31.427Z,100652.63
2022-12-25T23:23:16.592Z,100642.66
2022-12-25T23:26:01.874Z,100640.81
2022-12-25T23:28:47.204Z,100641.66
2022-12-25T23:31:16.705Z,100646.84
2022-12-25T23:33:44.722Z,100638.63
2022-12-25T23:36:12.588Z,100640.38
2022-12-25T23:38:40.498Z,100642.97
2022-12-25T23:41:08.954Z,100649.16
2022-12-25T23:43:36.758Z,100639.94
2022-12-25T23:46:04.985Z,100641.66
2022-12-25T23:48:34.210Z,100635.91
2022-12-25T23:51:04.363Z,100639.50
2022-12-25T23:53:32.359Z,100630.44
2022-12-25T23:56:00.456Z,100639.38
2022-12-25T23:58:29.530Z,100630.16
